sensor_id;sensor_type;location;lat;lon;timestamp;P1;durP1;ratioP1;P2;durP2;ratioP2
76856;SDS011;69705;44.686;37.628;2024-02-14T00:00:55;11.10;;;5.27;;
76856;SDS011;69705;44.686;37.628;2024-02-14T00:03:22;12.07;;;5.38;;
76856;SDS011;69705;44.686;37.628;2024-02-14T00:05:49;15.30;;;5.68;;
76856;SDS011;69705;44.686;37.628;2024-02-14T00:08:18;11.45;;;4.90;;
76856;SDS011;69705;44.686;37.628;2024-02-14T00:10:44;12.50;;;5.45;;
76856;SDS011;69705;44.686;37.628;2024-02-14T00:13:11;16.60;;;5.80;;
76856;SDS011;69705;44.686;37.628;2024-02-14T00:15:39;11.25;;;4.88;;
76856;SDS011;69705;44.686;37.628;2024-02-14T00:18:06;11.75;;;5.28;;
76856;SDS011;69705;44.686;37.628;2024-02-14T00:20:32;14.32;;;6.05;;
76856;SDS011;69705;44.686;37.628;2024-02-14T00:23:00;13.02;;;5.90;;
76856;SDS011;69705;44.686;37.628;2024-02-14T00:25:28;10.43;;;4.90;;
76856;SDS011;69705;44.686;37.628;2024-02-14T00:27:57;11.05;;;4.93;;
76856;SDS011;69705;44.686;37.628;2024-02-14T00:30:26;12.07;;;5.25;;
76856;SDS011;69705;44.686;37.628;2024-02-14T00:33:12;15.38;;;4.85;;
76856;SDS011;69705;44.686;37.628;2024-02-14T00:35:39;15.13;;;5.05;;
76856;SDS011;69705;44.686;37.628;2024-02-14T00:38:06;11.93;;;5.23;;
76856;SDS011;69705;44.686;37.628;2024-02-14T00:40:33;10.90;;;5.22;;
76856;SDS011;69705;44.686;37.628;2024-02-14T00:42:59;14.73;;;5.00;;
76856;SDS011;69705;44.686;37.628;2024-02-14T00:45:26;15.48;;;5.22;;
76856;SDS011;69705;44.686;37.628;2024-02-14T00:47:53;15.10;;;5.28;;
76856;SDS011;69705;44.686;37.628;2024-02-14T00:50:19;10.90;;;5.03;;
76856;SDS011;69705;44.686;37.628;2024-02-14T00:52:46;12.63;;;5.43;;
76856;SDS011;69705;44.686;37.628;2024-02-14T01:07:49;20.55;;;18.10;;
76856;SDS011;69705;44.686;37.628;2024-02-14T01:10:16;12.03;;;5.83;;
76856;SDS011;69705;44.686;37.628;2024-02-14T01:12:44;13.48;;;5.53;;
76856;SDS011;69705;44.686;37.628;2024-02-14T01:15:11;11.10;;;4.88;;
76856;SDS011;69705;44.686;37.628;2024-02-14T01:17:38;14.35;;;5.82;;
76856;SDS011;69705;44.686;37.628;2024-02-14T01:20:06;13.07;;;5.57;;
76856;SDS011;69705;44.686;37.628;2024-02-14T01:22:36;13.20;;;5.50;;
76856;SDS011;69705;44.686;37.628;2024-02-14T01:36:23;19.30;;;17.27;;
76856;SDS011;69705;44.686;37.628;2024-02-14T01:38:50;12.57;;;5.53;;
76856;SDS011;69705;44.686;37.628;2024-02-14T01:41:17;9.77;;;4.50;;
76856;SDS011;69705;44.686;37.628;2024-02-14T01:43:45;13.07;;;5.03;;
76856;SDS011;69705;44.686;37.628;2024-02-14T01:46:12;10.05;;;4.50;;
76856;SDS011;69705;44.686;37.628;2024-02-14T01:48:50;9.82;;;4.57;;
76856;SDS011;69705;44.686;37.628;2024-02-14T01:51:17;9.77;;;4.60;;
76856;SDS011;69705;44.686;37.628;2024-02-14T01:53:47;13.30;;;5.13;;
76856;SDS011;69705;44.686;37.628;2024-02-14T01:56:14;13.50;;;4.82;;
76856;SDS011;69705;44.686;37.628;2024-02-14T01:58:42;10.50;;;4.68;;
76856;SDS011;69705;44.686;37.628;2024-02-14T02:01:09;12.60;;;4.53;;
76856;SDS011;69705;44.686;37.628;2024-02-14T02:03:37;9.23;;;4.27;;
76856;SDS011;69705;44.686;37.628;2024-02-14T02:06:07;11.43;;;5.10;;
76856;SDS011;69705;44.686;37.628;2024-02-14T02:08:35;9.73;;;4.25;;
76856;SDS011;69705;44.686;37.628;2024-02-14T02:11:03;12.20;;;5.30;;
76856;SDS011;69705;44.686;37.628;2024-02-14T02:13:50;12.35;;;4.38;;
76856;SDS011;69705;44.686;37.628;2024-02-14T02:16:37;9.63;;;4.07;;
76856;SDS011;69705;44.686;37.628;2024-02-14T02:19:30;10.52;;;4.38;;
76856;SDS011;69705;44.686;37.628;2024-02-14T02:22:19;10.20;;;4.22;;
76856;SDS011;69705;44.686;37.628;2024-02-14T02:25:06;10.27;;;4.20;;
76856;SDS011;69705;44.686;37.628;2024-02-14T02:27:37;12.10;;;4.68;;
76856;SDS011;69705;44.686;37.628;2024-02-14T02:30:24;13.63;;;4.70;;
76856;SDS011;69705;44.686;37.628;2024-02-14T02:32:51;10.15;;;4.97;;
76856;SDS011;69705;44.686;37.628;2024-02-14T02:35:18;10.50;;;4.65;;
76856;SDS011;69705;44.686;37.628;2024-02-14T02:38:07;12.57;;;4.85;;
76856;SDS011;69705;44.686;37.628;2024-02-14T02:40:54;10.40;;;4.72;;
76856;SDS011;69705;44.686;37.628;2024-02-14T02:43:41;12.60;;;4.60;;
76856;SDS011;69705;44.686;37.628;2024-02-14T02:46:27;13.77;;;4.80;;
76856;SDS011;69705;44.686;37.628;2024-02-14T02:49:14;10.80;;;4.45;;
76856;SDS011;69705;44.686;37.628;2024-02-14T02:51:45;12.00;;;4.43;;
76856;SDS011;69705;44.686;37.628;2024-02-14T02:54:32;10.63;;;4.82;;
76856;SDS011;69705;44.686;37.628;2024-02-14T02:57:19;12.00;;;4.70;;
76856;SDS011;69705;44.686;37.628;2024-02-14T02:59:46;12.45;;;4.93;;
76856;SDS011;69705;44.686;37.628;2024-02-14T03:02:14;11.75;;;4.57;;
76856;SDS011;69705;44.686;37.628;2024-02-14T03:05:02;14.25;;;5.13;;
76856;SDS011;69705;44.686;37.628;2024-02-14T03:07:52;9.93;;;4.35;;
76856;SDS011;69705;44.686;37.628;2024-02-14T03:10:39;9.67;;;4.43;;
76856;SDS011;69705;44.686;37.628;2024-02-14T03:13:27;12.60;;;4.65;;
76856;SDS011;69705;44.686;37.628;2024-02-14T03:16:15;11.60;;;4.82;;
76856;SDS011;69705;44.686;37.628;2024-02-14T03:18:43;11.50;;;4.45;;
76856;SDS011;69705;44.686;37.628;2024-02-14T03:21:11;12.45;;;4.63;;
76856;SDS011;69705;44.686;37.628;2024-02-14T03:23:38;13.63;;;4.70;;
76856;SDS011;69705;44.686;37.628;2024-02-14T03:26:06;12.32;;;4.72;;
76856;SDS011;69705;44.686;37.628;2024-02-14T03:28:34;13.07;;;4.47;;
76856;SDS011;69705;44.686;37.628;2024-02-14T03:31:01;9.88;;;4.07;;
76856;SDS011;69705;44.686;37.628;2024-02-14T03:33:28;10.43;;;4.15;;
76856;SDS011;69705;44.686;37.628;2024-02-14T03:35:55;10.83;;;4.23;;
76856;SDS011;69705;44.686;37.628;2024-02-14T03:38:26;11.80;;;4.57;;
76856;SDS011;69705;44.686;37.628;2024-02-14T03:40:57;12.85;;;4.85;;
76856;SDS011;69705;44.686;37.628;2024-02-14T03:43:24;10.38;;;4.55;;
76856;SDS011;69705;44.686;37.628;2024-02-14T03:45:51;10.93;;;4.82;;
76856;SDS011;69705;44.686;37.628;2024-02-14T03:48:18;11.43;;;4.87;;
76856;SDS011;69705;44.686;37.628;2024-02-14T03:50:45;11.93;;;4.78;;
76856;SDS011;69705;44.686;37.628;2024-02-14T03:53:12;11.48;;;5.10;;
76856;SDS011;69705;44.686;37.628;2024-02-14T03:55:41;10.02;;;4.55;;
76856;SDS011;69705;44.686;37.628;2024-02-14T03:58:08;12.20;;;4.85;;
76856;SDS011;69705;44.686;37.628;2024-02-14T04:00:35;11.20;;;4.83;;
76856;SDS011;69705;44.686;37.628;2024-02-14T04:03:02;12.13;;;5.05;;
76856;SDS011;69705;44.686;37.628;2024-02-14T04:05:29;12.77;;;5.00;;
76856;SDS011;69705;44.686;37.628;2024-02-14T04:07:56;11.93;;;4.88;;
76856;SDS011;69705;44.686;37.628;2024-02-14T04:10:23;11.50;;;4.80;;
76856;SDS011;69705;44.686;37.628;2024-02-14T04:12:50;11.90;;;5.37;;
76856;SDS011;69705;44.686;37.628;2024-02-14T04:15:17;12.30;;;5.03;;
76856;SDS011;69705;44.686;37.628;2024-02-14T04:17:49;35.60;;;18.13;;
76856;SDS011;69705;44.686;37.628;2024-02-14T04:20:16;13.98;;;5.60;;
76856;SDS011;69705;44.686;37.628;2024-02-14T04:22:43;15.82;;;7.40;;
76856;SDS011;69705;44.686;37.628;2024-02-14T04:25:11;17.13;;;6.77;;
76856;SDS011;69705;44.686;37.628;2024-02-14T04:27:38;13.13;;;5.10;;
76856;SDS011;69705;44.686;37.628;2024-02-14T04:30:05;16.75;;;5.65;;
76856;SDS011;69705;44.686;37.628;2024-02-14T04:32:52;11.35;;;5.50;;
76856;SDS011;69705;44.686;37.628;2024-02-14T04:35:20;16.60;;;5.50;;
76856;SDS011;69705;44.686;37.628;2024-02-14T04:37:47;17.63;;;5.17;;
76856;SDS011;69705;44.686;37.628;2024-02-14T04:40:15;11.95;;;5.57;;
76856;SDS011;69705;44.686;37.628;2024-02-14T04:42:42;13.98;;;5.22;;
76856;SDS011;69705;44.686;37.628;2024-02-14T04:45:09;13.40;;;5.55;;
76856;SDS011;69705;44.686;37.628;2024-02-14T04:47:52;12.23;;;5.47;;
76856;SDS011;69705;44.686;37.628;2024-02-14T04:50:19;47.33;;;22.80;;
76856;SDS011;69705;44.686;37.628;2024-02-14T04:52:46;17.98;;;6.60;;
76856;SDS011;69705;44.686;37.628;2024-02-14T04:55:13;13.65;;;5.10;;
76856;SDS011;69705;44.686;37.628;2024-02-14T04:57:40;12.85;;;5.32;;
76856;SDS011;69705;44.686;37.628;2024-02-14T05:00:07;16.15;;;5.95;;
76856;SDS011;69705;44.686;37.628;2024-02-14T05:02:36;12.73;;;4.90;;
76856;SDS011;69705;44.686;37.628;2024-02-14T05:05:03;19.10;;;5.18;;
76856;SDS011;69705;44.686;37.628;2024-02-14T05:07:32;13.20;;;4.80;;
76856;SDS011;69705;44.686;37.628;2024-02-14T05:10:00;14.07;;;5.40;;
76856;SDS011;69705;44.686;37.628;2024-02-14T05:12:27;14.48;;;6.00;;
76856;SDS011;69705;44.686;37.628;2024-02-14T05:14:54;15.70;;;6.00;;
76856;SDS011;69705;44.686;37.628;2024-02-14T05:17:21;16.45;;;5.20;;
76856;SDS011;69705;44.686;37.628;2024-02-14T05:19:49;14.98;;;5.53;;
76856;SDS011;69705;44.686;37.628;2024-02-14T05:22:17;14.77;;;5.40;;
76856;SDS011;69705;44.686;37.628;2024-02-14T05:24:44;12.07;;;5.88;;
76856;SDS011;69705;44.686;37.628;2024-02-14T05:27:12;16.43;;;5.13;;
76856;SDS011;69705;44.686;37.628;2024-02-14T05:29:39;15.05;;;5.72;;
76856;SDS011;69705;44.686;37.628;2024-02-14T05:32:06;10.80;;;4.75;;
76856;SDS011;69705;44.686;37.628;2024-02-14T05:34:35;16.70;;;5.60;;
76856;SDS011;69705;44.686;37.628;2024-02-14T05:37:02;14.45;;;5.13;;
76856;SDS011;69705;44.686;37.628;2024-02-14T05:39:29;14.67;;;5.43;;
76856;SDS011;69705;44.686;37.628;2024-02-14T05:41:56;13.90;;;5.65;;
76856;SDS011;69705;44.686;37.628;2024-02-14T05:44:23;11.52;;;5.53;;
76856;SDS011;69705;44.686;37.628;2024-02-14T05:46:52;18.15;;;5.43;;
76856;SDS011;69705;44.686;37.628;2024-02-14T05:49:19;57.25;;;28.45;;
76856;SDS011;69705;44.686;37.628;2024-02-14T05:51:47;27.57;;;12.83;;
76856;SDS011;69705;44.686;37.628;2024-02-14T05:54:14;14.98;;;6.20;;
76856;SDS011;69705;44.686;37.628;2024-02-14T05:56:41;44.33;;;20.42;;
76856;SDS011;69705;44.686;37.628;2024-02-14T05:59:09;16.00;;;7.97;;
76856;SDS011;69705;44.686;37.628;2024-02-14T06:01:36;13.45;;;6.72;;
76856;SDS011;69705;44.686;37.628;2024-02-14T06:04:03;17.87;;;7.10;;
76856;SDS011;69705;44.686;37.628;2024-02-14T06:06:30;15.30;;;7.65;;
76856;SDS011;69705;44.686;37.628;2024-02-14T06:08:57;14.73;;;7.10;;
76856;SDS011;69705;44.686;37.628;2024-02-14T06:11:24;15.23;;;8.02;;
76856;SDS011;69705;44.686;37.628;2024-02-14T06:13:51;13.95;;;6.38;;
76856;SDS011;69705;44.686;37.628;2024-02-14T06:16:18;18.53;;;5.87;;
76856;SDS011;69705;44.686;37.628;2024-02-14T06:18:46;13.02;;;5.13;;
76856;SDS011;69705;44.686;37.628;2024-02-14T06:21:13;14.85;;;5.57;;
76856;SDS011;69705;44.686;37.628;2024-02-14T06:23:40;13.38;;;5.35;;
76856;SDS011;69705;44.686;37.628;2024-02-14T06:26:07;10.52;;;5.07;;
76856;SDS011;69705;44.686;37.628;2024-02-14T06:28:34;12.30;;;4.93;;
76856;SDS011;69705;44.686;37.628;2024-02-14T06:31:01;14.38;;;5.38;;
76856;SDS011;69705;44.686;37.628;2024-02-14T06:33:28;20.38;;;5.90;;
76856;SDS011;69705;44.686;37.628;2024-02-14T06:35:55;15.15;;;5.75;;
76856;SDS011;69705;44.686;37.628;2024-02-14T06:38:22;16.77;;;5.50;;
76856;SDS011;69705;44.686;37.628;2024-02-14T06:40:49;13.17;;;5.57;;
76856;SDS011;69705;44.686;37.628;2024-02-14T06:43:16;14.50;;;5.93;;
76856;SDS011;69705;44.686;37.628;2024-02-14T06:45:44;15.27;;;5.65;;
76856;SDS011;69705;44.686;37.628;2024-02-14T06:48:21;11.88;;;5.35;;
76856;SDS011;69705;44.686;37.628;2024-02-14T06:50:50;15.27;;;5.60;;
76856;SDS011;69705;44.686;37.628;2024-02-14T06:53:17;12.37;;;5.20;;
76856;SDS011;69705;44.686;37.628;2024-02-14T06:55:44;11.88;;;5.00;;
76856;SDS011;69705;44.686;37.628;2024-02-14T06:58:11;13.15;;;5.47;;
76856;SDS011;69705;44.686;37.628;2024-02-14T07:00:38;12.27;;;5.45;;
76856;SDS011;69705;44.686;37.628;2024-02-14T07:03:05;12.88;;;5.18;;
76856;SDS011;69705;44.686;37.628;2024-02-14T07:05:32;15.40;;;5.60;;
76856;SDS011;69705;44.686;37.628;2024-02-14T07:07:59;13.50;;;5.40;;
76856;SDS011;69705;44.686;37.628;2024-02-14T07:10:29;13.15;;;5.10;;
76856;SDS011;69705;44.686;37.628;2024-02-14T07:12:56;13.57;;;5.30;;
76856;SDS011;69705;44.686;37.628;2024-02-14T07:15:23;17.30;;;5.10;;
76856;SDS011;69705;44.686;37.628;2024-02-14T07:17:54;15.60;;;5.23;;
76856;SDS011;69705;44.686;37.628;2024-02-14T07:20:24;12.40;;;5.18;;
76856;SDS011;69705;44.686;37.628;2024-02-14T07:22:52;14.90;;;5.55;;
76856;SDS011;69705;44.686;37.628;2024-02-14T07:25:19;15.38;;;5.60;;
76856;SDS011;69705;44.686;37.628;2024-02-14T07:27:47;11.43;;;5.63;;
76856;SDS011;69705;44.686;37.628;2024-02-14T07:30:16;16.50;;;7.87;;
76856;SDS011;69705;44.686;37.628;2024-02-14T07:32:43;15.30;;;7.22;;
76856;SDS011;69705;44.686;37.628;2024-02-14T07:35:11;66.85;;;33.90;;
76856;SDS011;69705;44.686;37.628;2024-02-14T07:37:39;22.00;;;11.50;;
76856;SDS011;69705;44.686;37.628;2024-02-14T07:40:09;16.67;;;8.80;;
76856;SDS011;69705;44.686;37.628;2024-02-14T07:42:55;22.55;;;10.23;;
76856;SDS011;69705;44.686;37.628;2024-02-14T07:45:24;34.70;;;13.10;;
76856;SDS011;69705;44.686;37.628;2024-02-14T07:47:52;22.65;;;9.05;;
76856;SDS011;69705;44.686;37.628;2024-02-14T07:50:19;18.38;;;8.02;;
76856;SDS011;69705;44.686;37.628;2024-02-14T07:52:46;11.38;;;5.07;;
76856;SDS011;69705;44.686;37.628;2024-02-14T07:55:14;12.20;;;4.70;;
76856;SDS011;69705;44.686;37.628;2024-02-14T07:57:41;11.95;;;4.93;;
76856;SDS011;69705;44.686;37.628;2024-02-14T08:00:08;11.85;;;4.95;;
76856;SDS011;69705;44.686;37.628;2024-02-14T08:02:36;10.63;;;4.85;;
76856;SDS011;69705;44.686;37.628;2024-02-14T08:05:03;10.93;;;4.75;;
76856;SDS011;69705;44.686;37.628;2024-02-14T08:07:35;11.75;;;4.97;;
76856;SDS011;69705;44.686;37.628;2024-02-14T08:10:02;13.68;;;5.18;;
76856;SDS011;69705;44.686;37.628;2024-02-14T08:12:30;11.80;;;4.95;;
76856;SDS011;69705;44.686;37.628;2024-02-14T08:14:57;14.15;;;4.63;;
76856;SDS011;69705;44.686;37.628;2024-02-14T08:17:24;11.38;;;4.80;;
76856;SDS011;69705;44.686;37.628;2024-02-14T08:19:51;8.50;;;4.30;;
76856;SDS011;69705;44.686;37.628;2024-02-14T08:22:19;8.77;;;3.97;;
76856;SDS011;69705;44.686;37.628;2024-02-14T08:24:47;9.07;;;4.30;;
76856;SDS011;69705;44.686;37.628;2024-02-14T08:27:14;11.05;;;4.35;;
76856;SDS011;69705;44.686;37.628;2024-02-14T08:29:41;10.05;;;4.57;;
76856;SDS011;69705;44.686;37.628;2024-02-14T08:32:08;8.60;;;4.18;;
76856;SDS011;69705;44.686;37.628;2024-02-14T08:34:35;10.48;;;4.30;;
76856;SDS011;69705;44.686;37.628;2024-02-14T08:37:02;9.85;;;3.92;;
76856;SDS011;69705;44.686;37.628;2024-02-14T08:39:29;10.20;;;4.22;;
76856;SDS011;69705;44.686;37.628;2024-02-14T08:41:58;10.02;;;4.65;;
76856;SDS011;69705;44.686;37.628;2024-02-14T08:44:28;11.65;;;5.40;;
76856;SDS011;69705;44.686;37.628;2024-02-14T08:46:55;17.25;;;5.20;;
76856;SDS011;69705;44.686;37.628;2024-02-14T08:49:22;9.45;;;4.60;;
76856;SDS011;69705;44.686;37.628;2024-02-14T08:51:49;13.20;;;4.28;;
76856;SDS011;69705;44.686;37.628;2024-02-14T08:54:16;12.60;;;4.38;;
76856;SDS011;69705;44.686;37.628;2024-02-14T08:56:43;9.05;;;4.60;;
76856;SDS011;69705;44.686;37.628;2024-02-14T08:59:10;10.25;;;4.53;;
76856;SDS011;69705;44.686;37.628;2024-02-14T09:01:37;13.50;;;5.40;;
76856;SDS011;69705;44.686;37.628;2024-02-14T09:04:04;9.20;;;4.80;;
76856;SDS011;69705;44.686;37.628;2024-02-14T09:06:31;10.13;;;5.43;;
76856;SDS011;69705;44.686;37.628;2024-02-14T09:08:59;13.48;;;5.55;;
76856;SDS011;69705;44.686;37.628;2024-02-14T09:11:26;12.27;;;4.90;;
76856;SDS011;69705;44.686;37.628;2024-02-14T09:13:53;12.05;;;5.10;;
76856;SDS011;69705;44.686;37.628;2024-02-14T09:16:22;10.32;;;4.35;;
76856;SDS011;69705;44.686;37.628;2024-02-14T09:18:49;9.00;;;3.95;;
76856;SDS011;69705;44.686;37.628;2024-02-14T09:21:16;10.75;;;3.90;;
76856;SDS011;69705;44.686;37.628;2024-02-14T09:23:43;12.77;;;3.70;;
76856;SDS011;69705;44.686;37.628;2024-02-14T09:26:11;7.32;;;3.70;;
76856;SDS011;69705;44.686;37.628;2024-02-14T09:28:41;7.28;;;3.58;;
76856;SDS011;69705;44.686;37.628;2024-02-14T09:31:09;8.75;;;3.78;;
76856;SDS011;69705;44.686;37.628;2024-02-14T09:33:37;10.65;;;4.47;;
76856;SDS011;69705;44.686;37.628;2024-02-14T09:36:06;9.23;;;3.90;;
76856;SDS011;69705;44.686;37.628;2024-02-14T09:38:34;9.43;;;4.38;;
76856;SDS011;69705;44.686;37.628;2024-02-14T09:41:44;10.07;;;4.15;;
76856;SDS011;69705;44.686;37.628;2024-02-14T09:43:56;10.85;;;4.07;;
76856;SDS011;69705;44.686;37.628;2024-02-14T09:46:24;8.85;;;4.00;;
76856;SDS011;69705;44.686;37.628;2024-02-14T09:48:54;9.93;;;4.18;;
76856;SDS011;69705;44.686;37.628;2024-02-14T09:51:22;7.40;;;3.90;;
76856;SDS011;69705;44.686;37.628;2024-02-14T09:53:51;9.25;;;4.28;;
76856;SDS011;69705;44.686;37.628;2024-02-14T09:56:21;9.63;;;3.92;;
76856;SDS011;69705;44.686;37.628;2024-02-14T09:58:51;7.93;;;3.83;;
76856;SDS011;69705;44.686;37.628;2024-02-14T10:01:22;15.43;;;8.35;;
76856;SDS011;69705;44.686;37.628;2024-02-14T10:03:50;16.65;;;9.93;;
76856;SDS011;69705;44.686;37.628;2024-02-14T10:06:18;10.63;;;5.97;;
76856;SDS011;69705;44.686;37.628;2024-02-14T10:08:48;20.65;;;12.73;;
76856;SDS011;69705;44.686;37.628;2024-02-14T10:11:17;16.50;;;8.48;;
76856;SDS011;69705;44.686;37.628;2024-02-14T10:13:47;14.15;;;6.03;;
76856;SDS011;69705;44.686;37.628;2024-02-14T10:16:16;10.07;;;4.65;;
76856;SDS011;69705;44.686;37.628;2024-02-14T10:18:45;11.55;;;4.97;;
76856;SDS011;69705;44.686;37.628;2024-02-14T10:21:16;13.07;;;5.43;;
76856;SDS011;69705;44.686;37.628;2024-02-14T10:23:50;13.35;;;5.88;;
76856;SDS011;69705;44.686;37.628;2024-02-14T10:26:18;12.13;;;5.97;;
76856;SDS011;69705;44.686;37.628;2024-02-14T10:28:45;12.70;;;5.95;;
76856;SDS011;69705;44.686;37.628;2024-02-14T10:31:13;15.20;;;5.80;;
76856;SDS011;69705;44.686;37.628;2024-02-14T10:33:40;13.65;;;5.85;;
76856;SDS011;69705;44.686;37.628;2024-02-14T10:36:08;13.10;;;5.68;;
76856;SDS011;69705;44.686;37.628;2024-02-14T10:38:35;12.82;;;5.50;;
76856;SDS011;69705;44.686;37.628;2024-02-14T10:41:03;10.95;;;5.30;;
76856;SDS011;69705;44.686;37.628;2024-02-14T10:43:31;10.52;;;4.80;;
76856;SDS011;69705;44.686;37.628;2024-02-14T10:46:00;10.88;;;4.78;;
76856;SDS011;69705;44.686;37.628;2024-02-14T10:48:32;10.52;;;5.05;;
76856;SDS011;69705;44.686;37.628;2024-02-14T10:51:04;12.88;;;5.60;;
76856;SDS011;69705;44.686;37.628;2024-02-14T10:53:34;13.00;;;6.32;;
76856;SDS011;69705;44.686;37.628;2024-02-14T10:56:01;13.95;;;6.18;;
76856;SDS011;69705;44.686;37.628;2024-02-14T10:58:29;14.32;;;5.63;;
76856;SDS011;69705;44.686;37.628;2024-02-14T11:00:59;13.02;;;6.07;;
76856;SDS011;69705;44.686;37.628;2024-02-14T11:03:26;12.63;;;5.72;;
76856;SDS011;69705;44.686;37.628;2024-02-14T11:05:56;12.60;;;5.55;;
76856;SDS011;69705;44.686;37.628;2024-02-14T11:08:30;33.92;;;17.67;;
76856;SDS011;69705;44.686;37.628;2024-02-14T11:11:01;45.92;;;29.90;;
76856;SDS011;69705;44.686;37.628;2024-02-14T11:13:28;18.50;;;10.45;;
76856;SDS011;69705;44.686;37.628;2024-02-14T11:16:02;14.43;;;5.70;;
76856;SDS011;69705;44.686;37.628;2024-02-14T11:18:33;11.27;;;4.70;;
76856;SDS011;69705;44.686;37.628;2024-02-14T11:21:02;14.40;;;4.68;;
76856;SDS011;69705;44.686;37.628;2024-02-14T11:23:30;11.82;;;4.90;;
76856;SDS011;69705;44.686;37.628;2024-02-14T11:26:01;11.18;;;4.85;;
76856;SDS011;69705;44.686;37.628;2024-02-14T11:28:30;12.25;;;4.60;;
76856;SDS011;69705;44.686;37.628;2024-02-14T11:31:01;9.57;;;4.47;;
76856;SDS011;69705;44.686;37.628;2024-02-14T11:33:30;15.77;;;6.30;;
76856;SDS011;69705;44.686;37.628;2024-02-14T11:35:57;11.60;;;5.70;;
76856;SDS011;69705;44.686;37.628;2024-02-14T11:38:25;10.60;;;4.78;;
76856;SDS011;69705;44.686;37.628;2024-02-14T11:40:55;12.65;;;4.65;;
76856;SDS011;69705;44.686;37.628;2024-02-14T11:43:25;9.32;;;4.80;;
76856;SDS011;69705;44.686;37.628;2024-02-14T11:45:53;11.85;;;5.20;;
76856;SDS011;69705;44.686;37.628;2024-02-14T11:48:20;11.85;;;5.10;;
76856;SDS011;69705;44.686;37.628;2024-02-14T11:50:51;12.40;;;5.07;;
76856;SDS011;69705;44.686;37.628;2024-02-14T11:53:20;11.20;;;4.93;;
76856;SDS011;69705;44.686;37.628;2024-02-14T11:55:47;10.38;;;4.90;;
76856;SDS011;69705;44.686;37.628;2024-02-14T11:58:15;15.30;;;5.40;;
76856;SDS011;69705;44.686;37.628;2024-02-14T12:00:43;12.00;;;5.43;;
76856;SDS011;69705;44.686;37.628;2024-02-14T12:03:21;17.77;;;6.88;;
76856;SDS011;69705;44.686;37.628;2024-02-14T12:05:52;17.30;;;7.28;;
76856;SDS011;69705;44.686;37.628;2024-02-14T12:08:20;21.30;;;7.78;;
76856;SDS011;69705;44.686;37.628;2024-02-14T12:10:48;22.17;;;8.20;;
76856;SDS011;69705;44.686;37.628;2024-02-14T12:13:17;15.80;;;6.78;;
76856;SDS011;69705;44.686;37.628;2024-02-14T12:15:47;21.92;;;6.20;;
76856;SDS011;69705;44.686;37.628;2024-02-14T12:18:16;16.05;;;6.25;;
76856;SDS011;69705;44.686;37.628;2024-02-14T12:20:46;15.00;;;6.25;;
76856;SDS011;69705;44.686;37.628;2024-02-14T12:23:18;19.40;;;7.22;;
76856;SDS011;69705;44.686;37.628;2024-02-14T12:25:45;22.00;;;7.47;;
76856;SDS011;69705;44.686;37.628;2024-02-14T12:28:15;22.10;;;8.38;;
76856;SDS011;69705;44.686;37.628;2024-02-14T12:30:46;21.17;;;8.20;;
76856;SDS011;69705;44.686;37.628;2024-02-14T12:33:25;22.63;;;8.98;;
76856;SDS011;69705;44.686;37.628;2024-02-14T12:35:54;24.58;;;9.65;;
76856;SDS011;69705;44.686;37.628;2024-02-14T12:38:22;32.33;;;10.52;;
76856;SDS011;69705;44.686;37.628;2024-02-14T12:40:49;23.58;;;11.52;;
76856;SDS011;69705;44.686;37.628;2024-02-14T12:43:20;31.83;;;12.65;;
76856;SDS011;69705;44.686;37.628;2024-02-14T12:45:47;32.33;;;13.60;;
76856;SDS011;69705;44.686;37.628;2024-02-14T12:48:21;35.58;;;13.57;;
76856;SDS011;69705;44.686;37.628;2024-02-14T12:50:50;32.05;;;13.85;;
76856;SDS011;69705;44.686;37.628;2024-02-14T12:53:18;34.25;;;14.50;;
76856;SDS011;69705;44.686;37.628;2024-02-14T12:55:46;38.58;;;16.73;;
76856;SDS011;69705;44.686;37.628;2024-02-14T12:58:14;39.63;;;19.17;;
76856;SDS011;69705;44.686;37.628;2024-02-14T13:00:41;48.10;;;21.00;;
76856;SDS011;69705;44.686;37.628;2024-02-14T13:03:09;34.70;;;15.60;;
76856;SDS011;69705;44.686;37.628;2024-02-14T13:05:37;28.33;;;12.30;;
76856;SDS011;69705;44.686;37.628;2024-02-14T13:08:04;30.40;;;11.20;;
76856;SDS011;69705;44.686;37.628;2024-02-14T13:10:32;22.30;;;9.77;;
76856;SDS011;69705;44.686;37.628;2024-02-14T13:12:59;24.60;;;9.40;;
76856;SDS011;69705;44.686;37.628;2024-02-14T13:15:26;29.23;;;9.70;;
76856;SDS011;69705;44.686;37.628;2024-02-14T13:17:53;25.60;;;9.43;;
76856;SDS011;69705;44.686;37.628;2024-02-14T13:20:20;34.28;;;10.15;;
76856;SDS011;69705;44.686;37.628;2024-02-14T13:22:46;29.10;;;10.55;;
76856;SDS011;69705;44.686;37.628;2024-02-14T13:25:13;29.58;;;10.90;;
76856;SDS011;69705;44.686;37.628;2024-02-14T13:27:41;28.30;;;11.77;;
76856;SDS011;69705;44.686;37.628;2024-02-14T13:30:09;60.58;;;25.98;;
76856;SDS011;69705;44.686;37.628;2024-02-14T13:32:36;44.60;;;17.08;;
76856;SDS011;69705;44.686;37.628;2024-02-14T13:35:03;33.60;;;12.85;;
76856;SDS011;69705;44.686;37.628;2024-02-14T13:37:32;32.60;;;9.80;;
76856;SDS011;69705;44.686;37.628;2024-02-14T13:39:59;26.40;;;11.48;;
76856;SDS011;69705;44.686;37.628;2024-02-14T13:42:27;30.13;;;13.90;;
76856;SDS011;69705;44.686;37.628;2024-02-14T13:44:54;39.33;;;19.35;;
76856;SDS011;69705;44.686;37.628;2024-02-14T13:47:22;33.88;;;13.00;;
76856;SDS011;69705;44.686;37.628;2024-02-14T13:49:50;36.75;;;12.43;;
76856;SDS011;69705;44.686;37.628;2024-02-14T13:52:18;33.47;;;11.80;;
76856;SDS011;69705;44.686;37.628;2024-02-14T13:54:46;31.50;;;11.57;;
76856;SDS011;69705;44.686;37.628;2024-02-14T13:57:13;22.65;;;9.80;;
76856;SDS011;69705;44.686;37.628;2024-02-14T13:59:40;28.13;;;10.23;;
76856;SDS011;69705;44.686;37.628;2024-02-14T14:02:08;27.75;;;10.52;;
76856;SDS011;69705;44.686;37.628;2024-02-14T14:04:35;24.00;;;10.00;;
76856;SDS011;69705;44.686;37.628;2024-02-14T14:07:03;22.55;;;9.85;;
76856;SDS011;69705;44.686;37.628;2024-02-14T14:09:31;27.55;;;10.70;;
76856;SDS011;69705;44.686;37.628;2024-02-14T14:11:59;24.35;;;10.60;;
76856;SDS011;69705;44.686;37.628;2024-02-14T14:14:26;21.90;;;8.27;;
76856;SDS011;69705;44.686;37.628;2024-02-14T14:16:53;21.38;;;8.77;;
76856;SDS011;69705;44.686;37.628;2024-02-14T14:19:20;21.98;;;9.25;;
76856;SDS011;69705;44.686;37.628;2024-02-14T14:21:47;27.80;;;10.25;;
76856;SDS011;69705;44.686;37.628;2024-02-14T14:24:14;25.70;;;10.05;;
76856;SDS011;69705;44.686;37.628;2024-02-14T14:26:42;30.60;;;13.00;;
76856;SDS011;69705;44.686;37.628;2024-02-14T14:29:09;30.50;;;16.40;;
76856;SDS011;69705;44.686;37.628;2024-02-14T14:31:37;20.65;;;10.70;;
76856;SDS011;69705;44.686;37.628;2024-02-14T14:34:04;28.80;;;9.57;;
76856;SDS011;69705;44.686;37.628;2024-02-14T14:36:31;21.33;;;9.65;;
76856;SDS011;69705;44.686;37.628;2024-02-14T14:38:58;23.77;;;9.73;;
76856;SDS011;69705;44.686;37.628;2024-02-14T14:41:27;23.38;;;10.00;;
76856;SDS011;69705;44.686;37.628;2024-02-14T14:43:55;24.27;;;10.65;;
76856;SDS011;69705;44.686;37.628;2024-02-14T14:46:22;27.27;;;11.82;;
76856;SDS011;69705;44.686;37.628;2024-02-14T14:48:49;24.30;;;11.50;;
76856;SDS011;69705;44.686;37.628;2024-02-14T14:51:16;25.77;;;11.40;;
76856;SDS011;69705;44.686;37.628;2024-02-14T14:53:44;60.70;;;31.90;;
76856;SDS011;69705;44.686;37.628;2024-02-14T14:56:11;25.77;;;12.35;;